Time;durP1;ratioP1;P1;durP2;ratioP2;P2;SDS_P1;SDS_P2;PMS_P1;PMS_P2;Temp;Humidity;BMP_temperature;BMP_pressure;BME280_temperature;BME280_humidity;BME280_pressure;Samples;Min_cycle;Max_cycle;Signal;HPM_P1;HPM_P2
2023/08/08 00:01:26;;;;;;;;;;;;;;;-144.99;nan;52431.78;5029024;28;20113;-64
2023/08/08 00:03:53;;;;;;;;;;;;;;;-144.99;nan;52393.06;5016066;28;19951;-65
2023/08/08 00:06:19;;;;;;;;;;;;;;;-144.99;nan;52474.59;5022704;28;19986;-64
2023/08/08 00:08:46;;;;;;;;;;;;;;;-144.99;nan;52444.03;4673342;28;9999986;-67
2023/08/08 00:11:12;;;;;;;;;;;;;;;-144.99;nan;52452.16;5026498;28;20511;-66
2023/08/08 00:13:39;;;;;;;;;;;;;;;-144.99;nan;52407.31;5019927;28;19957;-64
2023/08/08 00:16:05;;;;;;;;;;;;;;;-144.99;nan;52395.09;5024607;28;19981;-64
2023/08/08 00:18:33;;;;;;;;;;;;;;;-144.99;nan;52403.25;5022040;28;19951;-64
2023/08/08 00:21:00;;;;;;;;;;;;;;;-144.99;nan;52386.94;5028315;28;20066;-65
2023/08/08 00:23:26;;;;;;;;;;;;;;;-144.99;nan;52431.78;5029941;28;19950;-64
2023/08/08 00:25:53;;;;;;;;;;;;;;;-144.99;nan;52354.34;5029185;28;19980;-63
2023/08/08 00:28:19;;;;;;;;;;;;;;;-144.99;nan;52431.78;5029586;28;20063;-63
2023/08/08 00:30:46;;;;;;;;;;;;;;;-144.99;nan;52423.63;5029871;28;19942;-64
2023/08/08 00:33:12;;;;;;;;;;;;;;;-144.99;nan;52386.94;5027380;28;20464;-63
2023/08/08 00:35:40;;;;;;;;;;;;;;;-144.99;nan;52423.63;5029217;28;19992;-64
2023/08/08 00:38:06;;;;;;;;;;;;;;;-144.99;nan;52399.19;5027851;28;19973;-64
2023/08/08 00:40:33;;;;;;;;;;;;;;;-144.99;nan;52505.16;5029417;28;19968;-64
2023/08/08 00:42:59;;;;;;;;;;;;;;;-144.99;nan;52423.63;5022099;28;19959;-67
2023/08/08 00:45:26;;;;;;;;;;;;;;;-144.99;nan;52423.63;5032715;28;19946;-67
2023/08/08 00:47:52;;;;;;;;;;;;;;;-144.99;nan;52429.75;5035201;28;20466;-69
2023/08/08 00:50:19;;;;;;;;;;;;;;;-144.99;nan;52395.09;5031158;28;20059;-68
2023/08/08 00:52:47;;;;;;;;;;;;;;;-144.99;nan;52409.38;5029846;28;19965;-67
2023/08/08 00:55:15;;;;;;;;;;;;;;;-144.99;nan;52433.81;5029260;28;20415;-67
2023/08/08 00:57:41;;;;;;;;;;;;;;;-144.99;nan;52419.56;5030048;28;20516;-69
2023/08/08 01:00:09;;;;;;;;;;;;;;;-144.99;nan;52411.41;5021837;28;20002;-67
2023/08/08 01:02:36;;;;;;;;;;;;;;;-144.99;nan;52386.94;5030200;28;20053;-68
2023/08/08 01:05:03;;;;;;;;;;;;;;;-144.99;nan;52419.56;5028311;28;19994;-67
2023/08/08 01:07:31;;;;;;;;;;;;;;;-144.99;nan;52431.78;5030795;28;19950;-68
2023/08/08 01:10:04;;;;;;;;;;;;;;;-144.99;nan;52421.59;5029949;28;20010;-68
2023/08/08 01:12:31;;;;;;;;;;;;;;;-144.99;nan;52386.94;5030403;28;19964;-68
2023/08/08 01:14:57;;;;;;;;;;;;;;;-144.99;nan;52362.50;5029072;28;19957;-70
2023/08/08 01:17:25;;;;;;;;;;;;;;;-144.99;nan;52399.19;5025761;28;20007;-67
2023/08/08 01:19:52;;;;;;;;;;;;;;;-144.99;nan;52407.31;5026506;28;20053;-67
2023/08/08 01:22:23;;;;;;;;;;;;;;;-144.99;nan;52386.94;5030701;28;19964;-69
2023/08/08 01:24:52;;;;;;;;;;;;;;;-144.99;nan;52431.78;5030903;28;19989;-66
2023/08/08 01:27:18;;;;;;;;;;;;;;;-144.99;nan;52403.25;5035097;28;19950;-66
2023/08/08 01:29:45;;;;;;;;;;;;;;;-144.99;nan;52444.03;5038295;28;19988;-66
2023/08/08 01:32:11;;;;;;;;;;;;;;;-144.99;nan;52366.56;5036882;28;19964;-66
2023/08/08 01:34:38;;;;;;;;;;;;;;;-144.99;nan;52431.78;5036006;28;19980;-66
2023/08/08 01:37:07;;;;;;;;;;;;;;;-144.99;nan;52407.31;5030562;28;19945;-68
2023/08/08 01:39:34;;;;;;;;;;;;;;;-144.99;nan;52399.19;5029710;28;20355;-71
2023/08/08 01:42:03;;;;;;;;;;;;;;;-144.99;nan;52425.66;5031648;28;20014;-69
2023/08/08 01:44:30;;;;;;;;;;;;;;;-144.99;nan;52374.72;5023804;28;20044;-69
2023/08/08 01:46:57;;;;;;;;;;;;;;;-144.99;nan;52403.25;5030241;28;19946;-67
2023/08/08 01:49:24;;;;;;;;;;;;;;;-144.99;nan;52403.25;5036125;28;19973;-71
2023/08/08 01:51:50;;;;;;;;;;;;;;;-144.99;nan;52360.44;5031338;28;20447;-69
2023/08/08 01:54:17;;;;;;;;;;;;;;;-144.99;nan;52407.31;5043185;28;19985;-68
2023/08/08 01:56:43;;;;;;;;;;;;;;;-144.99;nan;52386.94;5042332;28;20049;-69
2023/08/08 01:59:11;;;;;;;;;;;;;;;-144.99;nan;52423.63;5046746;28;19966;-68
2023/08/08 02:01:38;;;;;;;;;;;;;;;-144.99;nan;52399.19;5044969;28;20041;-74
2023/08/08 02:04:04;;;;;;;;;;;;;;;-144.99;nan;52407.31;5049378;28;19942;-73
2023/08/08 02:06:31;;;;;;;;;;;;;;;-144.99;nan;52403.25;5051622;28;19930;-69
2023/08/08 02:08:57;;;;;;;;;;;;;;;-144.99;nan;52427.72;5048957;28;20068;-68
2023/08/08 02:11:24;;;;;;;;;;;;;;;-144.99;nan;52391.03;5048551;28;19966;-68
2023/08/08 02:13:50;;;;;;;;;;;;;;;-144.99;nan;52395.09;5042091;28;19951;-68
2023/08/08 02:16:18;;;;;;;;;;;;;;;-144.99;nan;52411.41;5033652;28;20403;-66
2023/08/08 02:18:45;;;;;;;;;;;;;;;-144.99;nan;52439.94;5026402;28;20303;-68
2023/08/08 02:21:11;;;;;;;;;;;;;;;-144.99;nan;52435.88;5028697;28;20019;-65
2023/08/08 02:23:37;;;;;;;;;;;;;;;-144.99;nan;52448.09;5028374;28;19978;-66
2023/08/08 02:26:04;;;;;;;;;;;;;;;-144.99;nan;52423.63;5028599;28;19999;-66
2023/08/08 02:28:30;;;;;;;;;;;;;;;-144.99;nan;52386.94;5033109;28;19977;-65
2023/08/08 02:30:57;;;;;;;;;;;;;;;-144.99;nan;52403.25;5033926;28;20467;-65
2023/08/08 02:33:25;;;;;;;;;;;;;;;-144.99;nan;52431.78;5036283;28;20035;-65
2023/08/08 02:35:51;;;;;;;;;;;;;;;-144.99;nan;52413.44;5033707;28;19995;-67
2023/08/08 02:38:18;;;;;;;;;;;;;;;-144.99;nan;52435.88;5028716;28;19984;-65
2023/08/08 02:40:44;;;;;;;;;;;;;;;-144.99;nan;52409.38;5034922;28;19989;-70
2023/08/08 02:43:11;;;;;;;;;;;;;;;-144.99;nan;52388.97;5034618;28;19967;-71
2023/08/08 02:45:38;;;;;;;;;;;;;;;-144.99;nan;52395.09;5038063;28;19945;-71
2023/08/08 02:48:04;;;;;;;;;;;;;;;-144.99;nan;52386.94;5042667;28;20025;-70
2023/08/08 02:50:32;;;;;;;;;;;;;;;-144.99;nan;52399.19;5041801;28;19989;-71
2023/08/08 02:52:59;;;;;;;;;;;;;;;-144.99;nan;52419.56;5037989;28;20048;-62
2023/08/08 02:55:25;;;;;;;;;;;;;;;-144.99;nan;52399.19;5033048;28;20046;-63
2023/08/08 02:57:52;;;;;;;;;;;;;;;-144.99;nan;52370.63;5031794;28;19957;-62
2023/08/08 03:00:18;;;;;;;;;;;;;;;-144.99;nan;52378.78;5023713;28;20462;-63
2023/08/08 03:02:45;;;;;;;;;;;;;;;-144.99;nan;52391.03;5030477;28;20022;-62
2023/08/08 03:05:11;;;;;;;;;;;;;;;-144.99;nan;52425.66;5031599;28;19948;-64
2023/08/08 03:07:39;;;;;;;;;;;;;;;-144.99;nan;52407.31;5031947;28;20317;-64
2023/08/08 03:10:06;;;;;;;;;;;;;;;-144.99;nan;52427.72;5032604;28;20459;-66
2023/08/08 03:12:32;;;;;;;;;;;;;;;-144.99;nan;52427.72;5024468;28;19967;-65
2023/08/08 03:14:59;;;;;;;;;;;;;;;-144.99;nan;52388.97;5031441;28;20060;-65
2023/08/08 03:17:25;;;;;;;;;;;;;;;-144.99;nan;52448.09;5030787;28;19941;-65
2023/08/08 03:19:52;;;;;;;;;;;;;;;-144.99;nan;52399.19;5031530;28;20084;-64
2023/08/08 03:22:18;;;;;;;;;;;;;;;-144.99;nan;52374.72;5032237;28;20007;-63
2023/08/08 03:24:46;;;;;;;;;;;;;;;-144.99;nan;52391.03;5032844;28;19946;-64
2023/08/08 03:27:13;;;;;;;;;;;;;;;-144.99;nan;52439.94;5028285;28;19996;-64
2023/08/08 03:29:39;;;;;;;;;;;;;;;-144.99;nan;52407.31;5031509;28;20402;-64
2023/08/08 03:32:06;;;;;;;;;;;;;;;-144.99;nan;52425.66;5031268;28;20026;-64
2023/08/08 03:34:33;;;;;;;;;;;;;;;-144.99;nan;52386.94;5029893;28;19940;-64
2023/08/08 03:36:59;;;;;;;;;;;;;;;-144.99;nan;52380.84;5027919;28;19992;-63
2023/08/08 03:39:26;;;;;;;;;;;;;;;-144.99;nan;52415.47;5031260;28;19951;-64
2023/08/08 03:41:54;;;;;;;;;;;;;;;-144.99;nan;52391.03;5031079;28;19974;-65
2023/08/08 03:44:20;;;;;;;;;;;;;;;-144.99;nan;52362.50;5030302;28;19948;-65
2023/08/08 03:46:47;;;;;;;;;;;;;;;-144.99;nan;52415.47;5030302;28;19955;-61
2023/08/08 03:49:13;;;;;;;;;;;;;;;-144.99;nan;52409.38;5030847;28;20445;-61
2023/08/08 03:51:40;;;;;;;;;;;;;;;-144.99;nan;52364.53;5031060;28;20435;-63
2023/08/08 03:54:06;;;;;;;;;;;;;;;-144.99;nan;52399.19;5031476;28;19954;-63
2023/08/08 03:56:33;;;;;;;;;;;;;;;-144.99;nan;52427.72;5029659;28;19942;-64
2023/08/08 03:59:01;;;;;;;;;;;;;;;-144.99;nan;52423.63;5019804;28;19944;-63
2023/08/08 04:01:27;;;;;;;;;;;;;;;-144.99;nan;52427.72;5031074;28;20376;-63
2023/08/08 04:03:54;;;;;;;;;;;;;;;-144.99;nan;52399.19;5030709;28;19992;-64
2023/08/08 04:06:20;;;;;;;;;;;;;;;-144.99;nan;52407.31;5029272;28;20004;-70
2023/08/08 04:08:47;;;;;;;;;;;;;;;-144.99;nan;52435.88;5030352;28;20012;-69
2023/08/08 04:11:13;;;;;;;;;;;;;;;-144.99;nan;52407.31;5029746;28;20388;-69
2023/08/08 04:13:39;;;;;;;;;;;;;;;-144.99;nan;52382.88;5027505;28;19946;-69
2023/08/08 04:16:07;;;;;;;;;;;;;;;-144.99;nan;52399.19;5035271;28;19970;-70
2023/08/08 04:18:34;;;;;;;;;;;;;;;-144.99;nan;52395.09;5028129;28;19952;-70
2023/08/08 04:21:00;;;;;;;;;;;;;;;-144.99;nan;52403.25;5019559;28;20023;-69
2023/08/08 04:23:27;;;;;;;;;;;;;;;-144.99;nan;52427.72;5031394;28;20004;-68
2023/08/08 04:25:54;;;;;;;;;;;;;;;-144.99;nan;52399.19;5029042;28;19956;-65
2023/08/08 04:28:20;;;;;;;;;;;;;;;-144.99;nan;52382.88;5022046;28;20213;-71
2023/08/08 04:30:47;;;;;;;;;;;;;;;-144.99;nan;52439.94;5027574;28;19980;-70
2023/08/08 04:33:15;;;;;;;;;;;;;;;-144.99;nan;52409.38;5030418;28;19951;-70
2023/08/08 04:35:41;;;;;;;;;;;;;;;-144.99;nan;52427.72;5027871;28;20368;-72
2023/08/08 04:38:08;;;;;;;;;;;;;;;-144.99;nan;52376.75;5021349;28;20007;-70
2023/08/08 04:40:35;;;;;;;;;;;;;;;-144.99;nan;52403.25;5030424;28;20381;-70
2023/08/08 04:43:01;;;;;;;;;;;;;;;-144.99;nan;52395.09;5025068;28;19961;-70
2023/08/08 04:45:29;;;;;;;;;;;;;;;-144.99;nan;52411.41;5027844;28;20354;-68
2023/08/08 04:47:55;;;;;;;;;;;;;;;-144.99;nan;52403.25;5026072;28;19979;-69
2023/08/08 04:50:23;;;;;;;;;;;;;;;-144.99;nan;52427.72;5026604;28;20347;-69
2023/08/08 04:52:49;;;;;;;;;;;;;;;-144.99;nan;52388.97;5029478;28;19969;-69
2023/08/08 04:55:16;;;;;;;;;;;;;;;-144.99;nan;52439.94;5029916;28;20044;-68
2023/08/08 04:57:42;;;;;;;;;;;;;;;-144.99;nan;52403.25;5033155;28;20053;-68
2023/08/08 05:00:09;;;;;;;;;;;;;;;-144.99;nan;52376.75;5029951;28;20467;-69
2023/08/08 05:02:38;;;;;;;;;;;;;;;-144.99;nan;52407.31;5020101;28;19973;-67
2023/08/08 05:05:05;;;;;;;;;;;;;;;-144.99;nan;52409.38;5028834;28;19950;-70
2023/08/08 05:07:36;;;;;;;;;;;;;;;-144.99;nan;52388.97;5033094;28;20454;-68
2023/08/08 05:10:02;;;;;;;;;;;;;;;-144.99;nan;52395.09;5025950;28;20019;-68
2023/08/08 05:12:29;;;;;;;;;;;;;;;-144.99;nan;52391.03;5025969;28;19967;-66
2023/08/08 05:14:55;;;;;;;;;;;;;;;-144.99;nan;52391.03;5032008;28;19989;-72
2023/08/08 05:17:22;;;;;;;;;;;;;;;-144.99;nan;52415.47;5025383;28;20505;-76
2023/08/08 05:19:49;;;;;;;;;;;;;;;-144.99;nan;52399.19;5027617;28;20010;-74
2023/08/08 05:22:15;;;;;;;;;;;;;;;-144.99;nan;52354.34;5025219;28;19991;-75
2023/08/08 05:24:43;;;;;;;;;;;;;;;-144.99;nan;52378.78;5028256;28;20401;-75
2023/08/08 05:27:11;;;;;;;;;;;;;;;-144.99;nan;52350.25;5028649;28;20477;-72
2023/08/08 05:29:45;;;;;;;;;;;;;;;-144.99;nan;52417.53;4607797;28;10000656;-72
2023/08/08 05:32:12;;;;;;;;;;;;;;;-144.99;nan;52395.09;5020513;28;20439;-73
2023/08/08 05:34:38;;;;;;;;;;;;;;;-144.99;nan;52415.47;5019468;28;20203;-72
2023/08/08 05:37:05;;;;;;;;;;;;;;;-144.99;nan;52382.88;5020047;28;20461;-72
2023/08/08 05:39:31;;;;;;;;;;;;;;;-144.99;nan;52376.75;5027887;28;20272;-71
2023/08/08 05:41:59;;;;;;;;;;;;;;;-144.99;nan;52386.94;5026878;28;20071;-72
2023/08/08 05:44:26;;;;;;;;;;;;;;;-144.99;nan;52407.31;5024790;28;19953;-71
2023/08/08 05:46:52;;;;;;;;;;;;;;;-144.99;nan;52374.72;5015093;28;19990;-71
2023/08/08 05:49:19;;;;;;;;;;;;;;;-144.99;nan;52378.78;5017169;28;19946;-73
2023/08/08 05:51:45;;;;;;;;;;;;;;;-144.99;nan;52374.72;5018473;28;20072;-73
2023/08/08 05:54:12;;;;;;;;;;;;;;;-144.99;nan;52374.72;5021227;28;19954;-72
2023/08/08 05:56:39;;;;;;;;;;;;;;;-144.99;nan;52386.94;5015844;28;19964;-73
2023/08/08 05:59:07;;;;;;;;;;;;;;;-144.99;nan;52342.09;5031352;28;19946;-73
2023/08/08 06:01:33;;;;;;;;;;;;;;;-144.99;nan;52415.47;5033102;28;19962;-72
2023/08/08 06:04:00;;;;;;;;;;;;;;;-144.99;nan;52395.09;5022288;28;20298;-71
2023/08/08 06:06:26;;;;;;;;;;;;;;;-144.99;nan;52358.41;5019062;28;20106;-73
2023/08/08 06:08:53;;;;;;;;;;;;;;;-144.99;nan;52391.03;5014369;28;20023;-73
2023/08/08 06:11:21;;;;;;;;;;;;;;;-144.99;nan;52382.88;5020890;28;19999;-73
2023/08/08 06:13:47;;;;;;;;;;;;;;;-144.99;nan;52362.50;5014407;28;20056;-72
2023/08/08 06:16:15;;;;;;;;;;;;;;;-144.99;nan;52376.75;5025066;28;20382;-71
2023/08/08 06:18:42;;;;;;;;;;;;;;;-144.99;nan;52374.72;5023483;28;20572;-73
2023/08/08 06:21:09;;;;;;;;;;;;;;;-144.99;nan;52391.03;5023020;28;20057;-73
2023/08/08 06:23:35;;;;;;;;;;;;;;;-144.99;nan;52360.44;5025221;28;19995;-72
2023/08/08 06:26:02;;;;;;;;;;;;;;;-144.99;nan;52370.63;5022009;28;19948;-73
2023/08/08 06:28:30;;;;;;;;;;;;;;;-144.99;nan;52382.88;5026566;28;20044;-71
2023/08/08 06:30:57;;;;;;;;;;;;;;;-144.99;nan;52407.31;5022429;28;19976;-71
2023/08/08 06:33:25;;;;;;;;;;;;;;;-144.99;nan;52358.41;5015794;28;20468;-72
2023/08/08 06:35:51;;;;;;;;;;;;;;;-144.99;nan;52366.56;5025909;28;20113;-72
2023/08/08 06:38:18;;;;;;;;;;;;;;;-144.99;nan;52366.56;5020684;28;19947;-73
2023/08/08 06:40:44;;;;;;;;;;;;;;;-144.99;nan;52364.53;5023512;28;19952;-73
2023/08/08 06:43:11;;;;;;;;;;;;;;;-144.99;nan;52344.16;5028751;28;19952;-74
2023/08/08 06:45:37;;;;;;;;;;;;;;;-144.99;nan;52393.06;5035766;28;19952;-73
2023/08/08 06:48:04;;;;;;;;;;;;;;;-144.99;nan;52374.72;5036439;28;20332;-72
2023/08/08 06:50:32;;;;;;;;;;;;;;;-144.99;nan;52376.75;5027493;28;20062;-73
2023/08/08 06:52:58;;;;;;;;;;;;;;;-144.99;nan;52382.88;5016295;28;19998;-72
2023/08/08 06:55:25;;;;;;;;;;;;;;;-144.99;nan;52370.63;5025756;28;19953;-72
2023/08/08 06:57:51;;;;;;;;;;;;;;;-144.99;nan;52333.94;5028344;28;19951;-73
2023/08/08 07:00:18;;;;;;;;;;;;;;;-144.99;nan;52350.25;5026840;28;20030;-72
2023/08/08 07:02:44;;;;;;;;;;;;;;;-144.99;nan;52346.19;5020864;28;20391;-73
2023/08/08 07:05:11;;;;;;;;;;;;;;;-144.99;nan;52378.78;5022739;28;20381;-73
2023/08/08 07:07:39;;;;;;;;;;;;;;;-144.99;nan;52350.25;5011257;28;20397;-74
2023/08/08 07:10:06;;;;;;;;;;;;;;;-144.99;nan;52382.88;5023737;28;20030;-73
2023/08/08 07:12:33;;;;;;;;;;;;;;;-144.99;nan;52378.78;5023137;28;19979;-73
2023/08/08 07:14:59;;;;;;;;;;;;;;;-144.99;nan;52358.41;5024120;28;19950;-73
2023/08/08 07:17:26;;;;;;;;;;;;;;;-144.99;nan;52358.41;5025938;28;19947;-71
2023/08/08 07:19:52;;;;;;;;;;;;;;;-144.99;nan;52374.72;5025583;28;21499;-72
2023/08/08 07:22:19;;;;;;;;;;;;;;;-144.99;nan;52376.75;5026624;28;20441;-72
2023/08/08 07:24:46;;;;;;;;;;;;;;;-144.99;nan;52325.81;5022727;28;20023;-73
2023/08/08 07:27:13;;;;;;;;;;;;;;;-144.99;nan;52366.56;5024879;28;20405;-72
2023/08/08 07:29:40;;;;;;;;;;;;;;;-144.99;nan;52403.25;5032765;28;20063;-72
2023/08/08 07:32:07;;;;;;;;;;;;;;;-144.99;nan;52374.72;5028539;28;19985;-72
2023/08/08 07:34:33;;;;;;;;;;;;;;;-144.99;nan;52340.06;5026829;28;20065;-76
2023/08/08 07:37:00;;;;;;;;;;;;;;;-144.99;nan;52321.72;5040169;28;19948;-78
2023/08/08 07:39:26;;;;;;;;;;;;;;;-144.99;nan;52329.88;5038285;28;20002;-72
2023/08/08 07:41:54;;;;;;;;;;;;;;;-144.99;nan;52370.63;5028215;28;20224;-76
2023/08/08 07:44:20;;;;;;;;;;;;;;;-144.99;nan;52370.63;5027176;28;19951;-74
2023/08/08 07:46:47;;;;;;;;;;;;;;;-144.99;nan;52350.25;5027854;28;19948;-73
2023/08/08 07:49:14;;;;;;;;;;;;;;;-144.99;nan;52370.63;5024737;28;20091;-71
2023/08/08 07:51:40;;;;;;;;;;;;;;;-144.99;nan;52378.78;5026542;28;20421;-73
2023/08/08 07:54:08;;;;;;;;;;;;;;;-144.99;nan;52370.63;5022910;28;20038;-74
2023/08/08 07:56:35;;;;;;;;;;;;;;;-144.99;nan;52323.75;5025958;28;20097;-73
2023/08/08 07:59:03;;;;;;;;;;;;;;;-144.99;nan;52350.25;5026607;28;20188;-75
2023/08/08 08:01:30;;;;;;;;;;;;;;;-144.99;nan;52399.19;5023986;28;20365;-73
2023/08/08 08:03:56;;;;;;;;;;;;;;;-144.99;nan;52362.50;5021159;28;20423;-72
2023/08/08 08:06:23;;;;;;;;;;;;;;;-144.99;nan;52386.94;5028449;28;19952;-73
2023/08/08 08:08:49;;;;;;;;;;;;;;;-144.99;nan;52366.56;5027970;28;20183;-73
2023/08/08 08:11:16;;;;;;;;;;;;;;;-144.99;nan;52354.34;5027742;28;20069;-72
2023/08/08 08:13:43;;;;;;;;;;;;;;;-144.99;nan;52378.78;5025655;28;19951;-73
2023/08/08 08:16:11;;;;;;;;;;;;;;;-144.99;nan;52399.19;5026928;28;20326;-74
2023/08/08 08:18:38;;;;;;;;;;;;;;;-144.99;nan;52415.47;5024923;28;19949;-73
2023/08/08 08:21:04;;;;;;;;;;;;;;;-144.99;nan;52370.63;5025663;28;20005;-74
2023/08/08 08:23:32;;;;;;;;;;;;;;;-144.99;nan;52403.25;5015676;28;20013;-72
2023/08/08 08:25:58;;;;;;;;;;;;;;;-144.99;nan;52391.03;5027640;28;19982;-74
2023/08/08 08:28:26;;;;;;;;;;;;;;;-144.99;nan;52411.41;5036385;28;20020;-72
2023/08/08 08:30:53;;;;;;;;;;;;;;;-144.99;nan;52419.56;5028047;28;20025;-72
2023/08/08 08:33:20;;;;;;;;;;;;;;;-144.99;nan;52427.72;5030125;28;19997;-76
2023/08/08 08:35:47;;;;;;;;;;;;;;;-144.99;nan;52395.09;5022321;28;19949;-72
2023/08/08 08:38:14;;;;;;;;;;;;;;;-144.99;nan;52407.31;5023746;28;20082;-72
2023/08/08 08:40:42;;;;;;;;;;;;;;;-144.99;nan;52439.94;5029985;28;19998;-72
2023/08/08 08:43:09;;;;;;;;;;;;;;;-144.99;nan;52468.47;5029583;28;19973;-72
2023/08/08 08:45:37;;;;;;;;;;;;;;;-144.99;nan;52413.44;5027672;28;19982;-72
2023/08/08 08:48:04;;;;;;;;;;;;;;;-144.99;nan;52452.16;5033351;28;20030;-72
2023/08/08 08:50:33;;;;;;;;;;;;;;;-144.99;nan;52403.25;5026504;28;19974;-73
2023/08/08 08:53:01;;;;;;;;;;;;;;;-144.99;nan;52374.72;5017052;28;20410;-72
2023/08/08 08:55:28;;;;;;;;;;;;;;;-144.99;nan;52427.72;5027547;28;20434;-73
2023/08/08 08:57:55;;;;;;;;;;;;;;;-144.99;nan;52395.09;5027112;28;20470;-73
2023/08/08 09:00:22;;;;;;;;;;;;;;;-144.99;nan;52395.09;5028340;28;20042;-72
2023/08/08 09:02:49;;;;;;;;;;;;;;;-144.99;nan;52395.09;5027090;28;20019;-72
2023/08/08 09:05:16;;;;;;;;;;;;;;;-144.99;nan;52415.47;5024311;28;20015;-74
2023/08/08 09:07:44;;;;;;;;;;;;;;;-144.99;nan;52391.03;5028339;28;20049;-73
2023/08/08 09:10:11;;;;;;;;;;;;;;;-144.99;nan;52350.25;5028327;28;19946;-72
2023/08/08 09:12:37;;;;;;;;;;;;;;;-144.99;nan;52382.88;5018633;28;19966;-74
2023/08/08 09:15:05;;;;;;;;;;;;;;;-144.99;nan;52382.88;5022294;28;20383;-71
2023/08/08 09:17:31;;;;;;;;;;;;;;;-144.99;nan;52356.38;5025659;28;19947;-72
2023/08/08 09:19:58;;;;;;;;;;;;;;;-144.99;nan;52366.56;5029022;28;19957;-74
2023/08/08 09:22:26;;;;;;;;;;;;;;;-144.99;nan;52382.88;5024030;28;20325;-73
2023/08/08 09:24:54;;;;;;;;;;;;;;;-144.99;nan;52378.78;5019053;28;19960;-71
2023/08/08 09:27:21;;;;;;;;;;;;;;;-144.99;nan;52382.88;5023197;28;20014;-73
2023/08/08 09:29:47;;;;;;;;;;;;;;;-144.99;nan;52431.78;5019578;28;19943;-74
2023/08/08 09:32:15;;;;;;;;;;;;;;;-144.99;nan;52382.88;5026646;28;20013;-72
2023/08/08 09:34:42;;;;;;;;;;;;;;;-144.99;nan;52378.78;5022728;28;19943;-73
2023/08/08 09:37:10;;;;;;;;;;;;;;;-144.99;nan;52395.09;5025822;28;20003;-76
2023/08/08 09:39:37;;;;;;;;;;;;;;;-144.99;nan;52431.78;5029342;28;20357;-75
2023/08/08 09:42:05;;;;;;;;;;;;;;;-144.99;nan;52419.56;5029212;28;19971;-73
2023/08/08 09:44:31;;;;;;;;;;;;;;;-144.99;nan;52413.44;5029507;28;20367;-71
2023/08/08 09:46:58;;;;;;;;;;;;;;;-144.99;nan;52370.63;5026322;28;19977;-74
2023/08/08 09:49:25;;;;;;;;;;;;;;;-144.99;nan;52403.25;5022077;28;19955;-72
2023/08/08 09:51:52;;;;;;;;;;;;;;;-144.99;nan;52370.63;5019970;28;19961;-73
2023/08/08 09:54:19;;;;;;;;;;;;;;;-144.99;nan;52407.31;5022214;28;20021;-74
2023/08/08 09:56:45;;;;;;;;;;;;;;;-144.99;nan;52409.38;5026746;28;20414;-73
2023/08/08 09:59:14;;;;;;;;;;;;;;;-144.99;nan;52399.19;4674405;28;10000484;-71
2023/08/08 10:01:41;;;;;;;;;;;;;;;-144.99;nan;52399.19;5020526;28;19971;-72
2023/08/08 10:04:08;;;;;;;;;;;;;;;-144.99;nan;52407.31;5027175;28;19988;-70
2023/08/08 10:06:34;;;;;;;;;;;;;;;-144.99;nan;52407.31;5028831;28;19956;-72
2023/08/08 10:09:01;;;;;;;;;;;;;;;-144.99;nan;52415.47;5039460;28;19944;-74
2023/08/08 10:11:28;;;;;;;;;;;;;;;-144.99;nan;52382.88;5027426;28;19974;-72
2023/08/08 10:13:55;;;;;;;;;;;;;;;-144.99;nan;52382.88;5030690;28;19953;-73
2023/08/08 10:16:23;;;;;;;;;;;;;;;-144.99;nan;52342.09;5022628;28;19995;-73
2023/08/08 10:18:56;;;;;;;;;;;;;;;-144.99;nan;52301.34;5018528;28;20019;-72
2023/08/08 10:21:24;;;;;;;;;;;;;;;-144.99;nan;52366.56;5026307;28;20002;-72
2023/08/08 10:23:51;;;;;;;;;;;;;;;-144.99;nan;52336.00;5022026;28;20520;-72
2023/08/08 10:26:19;;;;;;;;;;;;;;;-144.99;nan;52338.03;5021108;28;19957;-72
2023/08/08 10:28:53;;;;;;;;;;;;;;;-144.99;nan;52352.28;5024118;28;19947;-71
2023/08/08 10:31:21;;;;;;;;;;;;;;;-144.99;nan;52403.25;5026978;28;20018;-72
2023/08/08 10:33:49;;;;;;;;;;;;;;;-144.99;nan;52380.84;5024060;28;19962;-70
2023/08/08 10:36:16;;;;;;;;;;;;;;;-144.99;nan;52407.31;5018016;28;20346;-73
2023/08/08 10:38:43;;;;;;;;;;;;;;;-144.99;nan;52415.47;5021719;28;20334;-73
2023/08/08 10:41:10;;;;;;;;;;;;;;;-144.99;nan;52382.88;5019235;28;20419;-71
2023/08/08 10:43:37;;;;;;;;;;;;;;;-144.99;nan;52435.88;5025247;28;20050;-73
2023/08/08 10:46:04;;;;;;;;;;;;;;;-144.99;nan;52431.78;5027008;28;19953;-72
2023/08/08 10:48:31;;;;;;;;;;;;;;;-144.99;nan;52407.31;5027246;28;19954;-73
2023/08/08 10:51:00;;;;;;;;;;;;;;;-144.99;nan;52350.25;5020481;28;20047;-72
2023/08/08 10:53:27;;;;;;;;;;;;;;;-144.99;nan;52333.94;5028199;28;19957;-72
2023/08/08 10:56:03;;;;;;;;;;;;;;;-144.99;nan;52358.41;5029338;28;19949;-71
2023/08/08 10:58:37;;;;;;;;;;;;;;;-144.99;nan;52403.25;5037208;28;20365;-72
2023/08/08 11:01:07;;;;;;;;;;;;;;;-144.99;nan;52378.78;5022073;28;20048;-71
2023/08/08 11:03:34;;;;;;;;;;;;;;;-144.99;nan;52360.44;5022513;28;19951;-72
2023/08/08 11:06:03;;;;;;;;;;;;;;;-144.99;nan;52321.72;5029038;28;20776;-72
2023/08/08 11:08:30;;;;;;;;;;;;;;;-144.99;nan;52354.34;5027521;28;19953;-71
2023/08/08 11:10:56;;;;;;;;;;;;;;;-144.99;nan;52395.09;5029489;28;19985;-72
2023/08/08 11:13:23;;;;;;;;;;;;;;;-144.99;nan;52366.56;5024324;28;19993;-72
2023/08/08 11:15:49;;;;;;;;;;;;;;;-144.99;nan;52376.75;5022277;28;19994;-71
2023/08/08 11:18:16;;;;;;;;;;;;;;;-144.99;nan;52395.09;5024736;28;19956;-70
2023/08/08 11:20:42;;;;;;;;;;;;;;;-144.99;nan;52309.50;5020189;28;19947;-72
2023/08/08 11:23:12;;;;;;;;;;;;;;;-144.99;nan;52264.66;5032023;28;20419;-72
2023/08/08 11:25:40;;;;;;;;;;;;;;;-144.99;nan;52301.34;5032990;28;20457;-72
2023/08/08 11:28:07;;;;;;;;;;;;;;;-144.99;nan;52309.50;5030079;28;20464;-74
2023/08/08 11:30:35;;;;;;;;;;;;;;;-144.99;nan;52309.50;5025598;28;19978;-72
2023/08/08 11:33:01;;;;;;;;;;;;;;;-144.99;nan;52276.88;5030398;28;20032;-72
2023/08/08 11:35:28;;;;;;;;;;;;;;;-144.99;nan;52311.53;5027254;28;20006;-71
2023/08/08 11:37:56;;;;;;;;;;;;;;;-144.99;nan;52368.59;5024949;28;19995;-73
2023/08/08 11:40:25;;;;;;;;;;;;;;;-144.99;nan;52223.88;5027789;28;20061;-72
2023/08/08 11:42:52;;;;;;;;;;;;;;;-144.99;nan;52217.78;5028040;28;20567;-72
2023/08/08 11:45:19;;;;;;;;;;;;;;;-144.99;nan;52232.03;5026888;28;20014;-73
2023/08/08 11:47:49;;;;;;;;;;;;;;;-144.99;nan;52215.75;5035372;28;19991;-72
2023/08/08 11:50:16;;;;;;;;;;;;;;;-144.99;nan;52346.19;5023824;28;20002;-73
2023/08/08 11:52:43;;;;;;;;;;;;;;;-144.99;nan;52354.34;5014039;28;19973;-73
2023/08/08 11:55:10;;;;;;;;;;;;;;;-144.99;nan;52374.72;5026743;28;20156;-71
2023/08/08 11:57:38;;;;;;;;;;;;;;;-144.99;nan;52368.59;5025434;28;20395;-73
2023/08/08 12:00:07;;;;;;;;;;;;;;;-144.99;nan;52203.50;5027121;28;20035;-73
2023/08/08 12:02:33;;;;;;;;;;;;;;;-144.99;nan;52305.41;5028321;28;20109;-73
2023/08/08 12:05:04;;;;;;;;;;;;;;;-144.99;nan;52344.16;5028493;28;19949;-73
2023/08/08 12:07:32;;;;;;;;;;;;;;;-144.99;nan;52264.66;5021715;28;19956;-71
2023/08/08 12:09:59;;;;;;;;;;;;;;;-144.99;nan;52325.81;5021716;28;20486;-72
2023/08/08 12:12:26;;;;;;;;;;;;;;;-144.99;nan;52305.41;5019221;28;20262;-71
2023/08/08 12:14:55;;;;;;;;;;;;;;;-144.99;nan;52276.88;5028582;28;19952;-72
2023/08/08 12:17:22;;;;;;;;;;;;;;;-144.99;nan;52301.34;5026197;28;20010;-71
2023/08/08 12:19:49;;;;;;;;;;;;;;;-144.99;nan;52260.56;5023378;28;19953;-70
2023/08/08 12:22:16;;;;;;;;;;;;;;;-144.99;nan;52329.88;5019071;28;20058;-72
2023/08/08 12:24:42;;;;;;;;;;;;;;;-144.99;nan;52321.72;5028216;28;19952;-71
2023/08/08 12:27:09;;;;;;;;;;;;;;;-144.99;nan;52203.50;5022442;28;19985;-72
2023/08/08 12:29:35;;;;;;;;;;;;;;;-144.99;nan;52168.84;5023903;28;19955;-73
2023/08/08 12:32:07;;;;;;;;;;;;;;;-144.99;nan;52289.13;5025513;28;20061;-70
2023/08/08 12:34:34;;;;;;;;;;;;;;;-144.99;nan;52311.53;5021560;28;19981;-72
2023/08/08 12:37:00;;;;;;;;;;;;;;;-144.99;nan;52285.03;5024251;28;20032;-71
2023/08/08 12:39:27;;;;;;;;;;;;;;;-144.99;nan;52340.06;5027264;28;20038;-71
2023/08/08 12:41:53;;;;;;;;;;;;;;;-144.99;nan;52354.34;5028033;28;20021;-70
2023/08/08 12:44:20;;;;;;;;;;;;;;;-144.99;nan;52382.88;5023307;28;20002;-71